Time;durP1;ratioP1;P1;durP2;ratioP2;P2;SDS_P1;SDS_P2;PMS_P1;PMS_P2;Temp;Humidity;BMP_temperature;BMP_pressure;BME280_temperature;BME280_humidity;BME280_pressure;Samples;Min_cycle;Max_cycle;Signal;HPM_P1;HPM_P2
2022/09/07 00:01:54;;;;;;;16.63;8.50;;;;;;;;;;4974048;28;20027;-77
2022/09/07 00:04:40;;;;;;;11.05;8.60;;;;;;;;;;4973943;28;20492;-77
2022/09/07 00:07:39;;;;;;;9.60;8.35;;;;;;;;;;4972871;28;20061;-77
2022/09/07 00:10:07;;;;;;;15.18;8.65;;;;;;;;;;4972818;28;20037;-77
2022/09/07 00:16:06;;;;;;;13.32;8.50;;;;;;;;;;4973747;28;20034;-77
2022/09/07 00:18:39;;;;;;;11.80;9.20;;;;;;;;;;4974056;28;20030;-77
2022/09/07 00:25:24;;;;;;;14.68;8.63;;;;;;;;;;4971268;28;20762;-77
2022/09/07 00:31:44;;;;;;;12.43;8.50;;;;;;;;;;4977292;28;20030;-77
2022/09/07 00:34:24;;;;;;;11.88;9.15;;;;;;;;;;4977448;28;20046;-77
2022/09/07 00:36:54;;;;;;;12.55;9.30;;;;;;;;;;4977806;28;20026;-77
2022/09/07 00:40:35;;;;;;;10.80;8.38;;;;;;;;;;4977850;28;20023;-77
2022/09/07 00:43:42;;;;;;;11.07;8.65;;;;;;;;;;4977366;28;20043;-77
2022/09/07 00:46:42;;;;;;;12.95;8.48;;;;;;;;;;4977673;28;20050;-76
2022/09/07 00:49:56;;;;;;;11.60;8.40;;;;;;;;;;4974878;28;20031;-76
2022/09/07 00:52:30;;;;;;;12.90;8.45;;;;;;;;;;4946740;28;20046;-76
2022/09/07 00:55:09;;;;;;;10.32;8.57;;;;;;;;;;4976043;28;20034;-76
2022/09/07 00:57:47;;;;;;;11.68;8.95;;;;;;;;;;4977145;28;20023;-76
2022/09/07 01:00:18;;;;;;;13.73;9.55;;;;;;;;;;4976391;28;20388;-76
2022/09/07 01:03:16;;;;;;;11.50;9.52;;;;;;;;;;4977179;28;20070;-76
2022/09/07 01:06:19;;;;;;;12.20;8.80;;;;;;;;;;4971084;28;20034;-76
2022/09/07 01:08:59;;;;;;;;;;;;;;;;;;;;;
2022/09/07 01:11:51;;;;;;;;;;;;;;;;;;;;;
2022/09/07 01:14:43;;;;;;;10.20;8.38;;;;;;;;;;4976992;28;20018;-77
2022/09/07 01:18:26;;;;;;;11.07;8.60;;;;;;;;;;4976742;28;20030;-76
2022/09/07 01:21:09;;;;;;;12.68;8.80;;;;;;;;;;4974457;28;20031;-76
2022/09/07 01:24:13;;;;;;;11.48;8.57;;;;;;;;;;4974765;28;20037;-76
2022/09/07 01:27:26;;;;;;;;;;;;;;;;;;;;;
2022/09/07 01:30:16;;;;;;;10.18;8.30;;;;;;;;;;4976911;28;20026;-76
2022/09/07 01:32:56;;;;;;;11.23;8.75;;;;;;;;;;4976582;28;20026;-76
2022/09/07 01:35:52;;;;;;;12.52;9.38;;;;;;;;;;4978340;28;20055;-76
2022/09/07 01:38:47;;;;;;;11.00;9.05;;;;;;;;;;4978032;28;20038;-77
2022/09/07 01:41:53;;;;;;;12.95;9.15;;;;;;;;;;4977708;28;20117;-77
2022/09/07 01:44:49;;;;;;;14.85;8.98;;;;;;;;;;4976868;28;20058;-76
2022/09/07 01:51:06;;;;;;;15.60;9.07;;;;;;;;;;4974210;28;20023;-77
2022/09/07 01:54:21;;;;;;;11.65;8.85;;;;;;;;;;4973208;28;20048;-77
2022/09/07 01:56:57;;;;;;;11.23;8.40;;;;;;;;;;4973764;28;20407;-77
2022/09/07 01:59:50;;;;;;;12.60;8.93;;;;;;;;;;4976019;28;20038;-76
2022/09/07 02:02:43;;;;;;;11.05;8.35;;;;;;;;;;4974526;28;20041;-77
2022/09/07 02:15:14;;;;;;;12.20;8.40;;;;;;;;;;4977443;28;20039;-76
2022/09/07 02:18:18;;;;;;;10.60;8.25;;;;;;;;;;4976617;28;20547;-77
2022/09/07 02:21:01;;;;;;;11.45;8.00;;;;;;;;;;4974580;28;20074;-76
2022/09/07 02:24:34;;;;;;;;;;;;;;;;;;;;;
2022/09/07 02:27:26;;;;;;;10.52;8.38;;;;;;;;;;4970893;28;20045;-77
2022/09/07 02:29:57;;;;;;;8.80;7.72;;;;;;;;;;4976226;28;20027;-77
2022/09/07 02:32:45;;;;;;;9.88;8.20;;;;;;;;;;4975770;28;20469;-77
2022/09/07 02:37:54;;;;;;;12.45;8.85;;;;;;;;;;4999197;23;20560;-76
2022/09/07 02:40:35;;;;;;;9.52;8.18;;;;;;;;;;5004564;28;20054;-76
2022/09/07 02:43:28;;;;;;;11.45;8.85;;;;;;;;;;5003594;28;20034;-76
2022/09/07 02:50:04;;;;;;;12.25;8.70;;;;;;;;;;5004311;28;20068;-76
2022/09/07 02:53:04;;;;;;;11.65;8.95;;;;;;;;;;4992696;28;20038;-76
2022/09/07 02:56:32;;;;;;;13.75;8.55;;;;;;;;;;5004160;28;20105;-76
2022/09/07 03:03:27;;;;;;;11.00;8.48;;;;;;;;;;5004729;28;20034;-77
2022/09/07 03:10:16;;;;;;;;;;;;;;;;;;;;;
2022/09/07 03:12:51;;;;;;;10.30;8.35;;;;;;;;;;5005055;28;20034;-77
2022/09/07 03:18:29;;;;;;;10.77;8.38;;;;;;;;;;4994325;28;20033;-77
2022/09/07 03:21:38;;;;;;;10.40;8.65;;;;;;;;;;4994222;28;20046;-77
2022/09/07 03:27:17;;;;;;;10.73;8.95;;;;;;;;;;4972961;28;20035;-77
2022/09/07 03:30:01;;;;;;;;;;;;;;;;;;;;;
2022/09/07 03:32:33;;;;;;;11.32;8.88;;;;;;;;;;4994611;28;20037;-76
2022/09/07 03:35:05;;;;;;;12.02;9.45;;;;;;;;;;4992665;28;20036;-78
2022/09/07 03:37:36;;;;;;;11.57;8.65;;;;;;;;;;4994212;28;20066;-77
2022/09/07 03:40:35;;;;;;;14.43;9.95;;;;;;;;;;4993565;28;20499;-77
2022/09/07 03:43:34;;;;;;;9.98;8.93;;;;;;;;;;4977637;28;20046;-77
2022/09/07 03:46:06;;;;;;;15.07;9.38;;;;;;;;;;4989672;28;20030;-77
2022/09/07 03:48:41;;;;;;;12.55;9.65;;;;;;;;;;4994157;28;20043;-77
2022/09/07 03:54:57;;;;;;;13.13;9.68;;;;;;;;;;4983695;28;20034;-77
2022/09/07 03:58:12;;;;;;;12.65;9.48;;;;;;;;;;4972833;28;20035;-77
2022/09/07 04:01:21;;;;;;;12.30;9.00;;;;;;;;;;5010796;28;20034;-77
2022/09/07 04:04:07;;;;;;;11.38;9.32;;;;;;;;;;4993413;28;20034;-77
2022/09/07 04:07:01;;;;;;;10.63;8.52;;;;;;;;;;4996647;28;20026;-77
2022/09/07 04:09:59;;;;;;;15.00;8.85;;;;;;;;;;4998019;28;20019;-77
2022/09/07 04:12:27;;;;;;;11.18;8.57;;;;;;;;;;4998253;28;20470;-77
2022/09/07 04:15:05;;;;;;;11.68;9.27;;;;;;;;;;4997462;28;20083;-76
2022/09/07 04:17:53;;;;;;;11.00;9.18;;;;;;;;;;4997545;28;20037;-77
2022/09/07 04:20:55;;;;;;;;;;;;;;;;;;;;;
2022/09/07 04:27:01;;;;;;;10.93;8.95;;;;;;;;;;4989176;28;20034;-77
2022/09/07 04:29:43;;;;;;;13.05;9.60;;;;;;;;;;4997861;28;20539;-76
2022/09/07 04:32:35;;;;;;;12.30;9.07;;;;;;;;;;4997555;28;20460;-78
2022/09/07 04:38:04;;;;;;;10.70;9.27;;;;;;;;;;4975912;28;20051;-78
2022/09/07 04:40:51;;;;;;;12.73;9.63;;;;;;;;;;4975425;28;20039;-77
2022/09/07 04:43:35;;;;;;;11.88;8.77;;;;;;;;;;4991835;28;20042;-77
2022/09/07 04:46:20;;;;;;;;;;;;;;;;;;4996706;28;20033;-76
2022/09/07 04:49:19;;;;;;;10.05;8.50;;;;;;;;;;4997284;28;20290;-76
2022/09/07 04:55:18;;;;;;;12.68;9.15;;;;;;;;;;4997134;28;20031;-77
2022/09/07 05:01:05;;;;;;;11.27;8.98;;;;;;;;;;4997719;28;20542;-77
2022/09/07 05:04:05;;;;;;;14.85;9.98;;;;;;;;;;4996824;28;20041;-77
2022/09/07 05:06:43;;;;;;;12.45;9.48;;;;;;;;;;4992711;28;20462;-78
2022/09/07 05:09:20;;;;;;;11.05;8.98;;;;;;;;;;4997147;28;20037;-77
2022/09/07 05:15:32;;;;;;;11.25;8.85;;;;;;;;;;4954863;28;20031;-77
2022/09/07 05:22:23;;;;;;;;;;;;;;;;;;;;;
2022/09/07 05:27:47;;;;;;;11.07;8.82;;;;;;;;;;4996079;28;20044;-77
2022/09/07 05:30:29;;;;;;;12.52;9.75;;;;;;;;;;4996522;28;20022;-76
2022/09/07 05:33:19;;;;;;;;;;;;;;;;;;;;;
2022/09/07 05:37:15;;;;;;;13.52;8.88;;;;;;;;;;4993947;28;20030;-77
2022/09/07 05:39:59;;;;;;;15.95;8.63;;;;;;;;;;4987724;28;20084;-76
2022/09/07 05:42:47;;;;;;;15.57;10.00;;;;;;;;;;4995950;28;20499;-76
2022/09/07 05:46:00;;;;;;;;;;;;;;;;;;;;;
2022/09/07 05:48:26;;;;;;;16.83;10.05;;;;;;;;;;4997597;28;20029;-76
2022/09/07 05:51:05;;;;;;;20.02;10.27;;;;;;;;;;4996197;28;20117;-76
2022/09/07 05:53:36;;;;;;;15.98;10.90;;;;;;;;;;4996328;28;20112;-76
2022/09/07 06:06:17;;;;;;;10.98;9.43;;;;;;;;;;4981885;28;20535;-77
2022/09/07 06:08:45;;;;;;;12.68;9.45;;;;;;;;;;4994229;28;20041;-77
2022/09/07 06:11:15;;;;;;;15.13;9.90;;;;;;;;;;4995347;28;20018;-76
2022/09/07 06:13:43;;;;;;;10.80;9.00;;;;;;;;;;4994244;28;20022;-78
2022/09/07 06:16:10;;;;;;;11.98;8.82;;;;;;;;;;4995696;28;20105;-77
2022/09/07 06:18:51;;;;;;;13.68;9.48;;;;;;;;;;4995363;28;20089;-77
2022/09/07 06:21:19;;;;;;;13.77;9.40;;;;;;;;;;4996365;28;20043;-76
2022/09/07 06:23:47;;;;;;;17.85;9.68;;;;;;;;;;4995425;28;20026;-76
2022/09/07 06:26:14;;;;;;;12.82;8.68;;;;;;;;;;4995064;28;20036;-76
2022/09/07 06:28:42;;;;;;;11.55;8.10;;;;;;;;;;4994166;28;20018;-76
2022/09/07 06:31:12;;;;;;;12.73;6.93;;;;;;;;;;4995093;28;20054;-77
2022/09/07 06:33:47;;;;;;;12.25;8.15;;;;;;;;;;4996187;28;20037;-78
2022/09/07 06:36:15;;;;;;;9.05;6.82;;;;;;;;;;4998396;28;20041;-78
2022/09/07 06:38:41;;;;;;;10.52;7.32;;;;;;;;;;4996458;28;20022;-75
2022/09/07 06:41:17;;;;;;;12.05;8.00;;;;;;;;;;4995713;28;20040;-77
2022/09/07 06:43:43;;;;;;;11.77;7.35;;;;;;;;;;4996163;28;20038;-77
2022/09/07 06:46:08;;;;;;;10.57;7.88;;;;;;;;;;4996207;28;20453;-76
2022/09/07 06:48:34;;;;;;;9.88;7.38;;;;;;;;;;4995438;28;20376;-76
2022/09/07 06:51:00;;;;;;;12.98;7.07;;;;;;;;;;4994932;28;20022;-76
2022/09/07 06:53:29;;;;;;;10.48;7.55;;;;;;;;;;4994879;28;20538;-77
2022/09/07 06:55:54;;;;;;;13.57;8.63;;;;;;;;;;4994624;28;20026;-77
2022/09/07 06:58:20;;;;;;;15.20;8.30;;;;;;;;;;4994757;28;20486;-75
2022/09/07 07:00:45;;;;;;;10.63;7.68;;;;;;;;;;4995024;28;20034;-75
2022/09/07 07:03:10;;;;;;;10.40;7.95;;;;;;;;;;4994752;28;20120;-77
2022/09/07 07:05:35;;;;;;;14.23;8.18;;;;;;;;;;4993090;28;20033;-76
2022/09/07 07:08:01;;;;;;;10.40;7.10;;;;;;;;;;4993093;28;20023;-76
2022/09/07 07:10:26;;;;;;;11.50;7.55;;;;;;;;;;4994045;28;20248;-77
2022/09/07 07:12:55;;;;;;;9.60;7.20;;;;;;;;;;4994191;28;20109;-77
2022/09/07 07:15:21;;;;;;;9.20;6.93;;;;;;;;;;4992790;28;20268;-76
2022/09/07 07:17:46;;;;;;;10.82;6.95;;;;;;;;;;4994338;28;20038;-76
2022/09/07 07:20:12;;;;;;;9.82;7.53;;;;;;;;;;4992690;28;20030;-77
2022/09/07 07:22:37;;;;;;;8.80;7.43;;;;;;;;;;4993188;28;20507;-77
2022/09/07 07:25:02;;;;;;;8.97;7.33;;;;;;;;;;4993918;28;20029;-76
2022/09/07 07:27:30;;;;;;;10.20;8.43;;;;;;;;;;4993786;28;20255;-76
2022/09/07 07:29:55;;;;;;;11.35;7.43;;;;;;;;;;4992840;28;20026;-76
2022/09/07 07:32:20;;;;;;;8.37;7.47;;;;;;;;;;4994055;28;20031;-78
2022/09/07 07:34:45;;;;;;;10.05;7.68;;;;;;;;;;4994261;28;20263;-76
2022/09/07 07:37:11;;;;;;;8.80;7.40;;;;;;;;;;4993733;28;20022;-76
2022/09/07 07:39:36;;;;;;;11.03;7.30;;;;;;;;;;4994006;28;20350;-76
2022/09/07 07:42:01;;;;;;;12.23;7.57;;;;;;;;;;4993801;28;20276;-76
2022/09/07 07:44:26;;;;;;;9.37;7.93;;;;;;;;;;4994115;28;20266;-77
2022/09/07 07:46:52;;;;;;;11.10;7.60;;;;;;;;;;4994056;28;20267;-77
2022/09/07 07:49:17;;;;;;;11.88;7.80;;;;;;;;;;4992570;28;20283;-77
2022/09/07 07:51:42;;;;;;;9.73;7.18;;;;;;;;;;4994250;28;20019;-76
2022/09/07 07:54:07;;;;;;;10.20;6.47;;;;;;;;;;4994018;28;20433;-76
2022/09/07 07:56:32;;;;;;;11.63;7.33;;;;;;;;;;4993697;28;20026;-77
2022/09/07 07:58:58;;;;;;;10.07;7.53;;;;;;;;;;4992582;28;20267;-76
2022/09/07 08:01:23;;;;;;;9.10;7.13;;;;;;;;;;4993717;28;20280;-77
2022/09/07 08:03:49;;;;;;;11.77;7.50;;;;;;;;;;4992629;28;20260;-76
2022/09/07 08:06:16;;;;;;;9.20;6.75;;;;;;;;;;4993923;28;20360;-76
2022/09/07 08:08:43;;;;;;;8.50;7.15;;;;;;;;;;4992454;28;20081;-76
2022/09/07 08:11:11;;;;;;;11.05;6.72;;;;;;;;;;4992570;28;20069;-76
2022/09/07 08:13:39;;;;;;;8.63;6.55;;;;;;;;;;4992137;28;20023;-75
2022/09/07 08:16:04;;;;;;;9.38;6.60;;;;;;;;;;4993760;28;20160;-76
2022/09/07 08:18:32;;;;;;;8.88;7.20;;;;;;;;;;4993615;28;20499;-76
2022/09/07 08:21:02;;;;;;;8.38;6.03;;;;;;;;;;4993495;28;20034;-77
2022/09/07 08:23:30;;;;;;;7.85;6.55;;;;;;;;;;4992553;28;20046;-77
2022/09/07 08:25:57;;;;;;;8.93;6.63;;;;;;;;;;4993077;28;20061;-77
2022/09/07 08:28:24;;;;;;;8.73;6.45;;;;;;;;;;4992118;28;20031;-77
2022/09/07 08:30:49;;;;;;;7.50;6.10;;;;;;;;;;4993718;28;20034;-75
2022/09/07 08:33:15;;;;;;;7.65;6.85;;;;;;;;;;4993155;28;20439;-76
2022/09/07 08:35:40;;;;;;;11.10;7.03;;;;;;;;;;4993330;28;20037;-76
2022/09/07 08:38:05;;;;;;;7.53;6.57;;;;;;;;;;4993178;28;20558;-76
2022/09/07 08:40:35;;;;;;;10.10;6.90;;;;;;;;;;4991751;28;20287;-76
2022/09/07 08:43:20;;;;;;;7.70;6.82;;;;;;;;;;4993411;28;20030;-76
2022/09/07 08:45:50;;;;;;;14.32;6.68;;;;;;;;;;4993385;28;20113;-75
2022/09/07 08:48:29;;;;;;;9.48;6.40;;;;;;;;;;4993759;28;20080;-76
2022/09/07 08:51:01;;;;;;;12.32;6.70;;;;;;;;;;4994570;28;20117;-75
2022/09/07 08:53:28;;;;;;;9.82;7.05;;;;;;;;;;4997275;28;20029;-76
2022/09/07 08:55:57;;;;;;;8.18;6.20;;;;;;;;;;4996915;28;20030;-75
2022/09/07 08:58:30;;;;;;;11.27;7.25;;;;;;;;;;4996645;28;20034;-77
2022/09/07 09:00:56;;;;;;;10.85;7.07;;;;;;;;;;4997159;28;20034;-76
2022/09/07 09:03:26;;;;;;;8.75;6.38;;;;;;;;;;4996653;28;20399;-77
2022/09/07 09:06:03;;;;;;;8.18;6.35;;;;;;;;;;4996681;28;20022;-77
2022/09/07 09:08:41;;;;;;;8.63;6.47;;;;;;;;;;4996585;28;20073;-77
2022/09/07 09:11:10;;;;;;;8.73;6.50;;;;;;;;;;4996605;28;20023;-77
2022/09/07 09:14:04;;;;;;;8.38;6.20;;;;;;;;;;4996475;28;20032;-77
2022/09/07 09:16:40;;;;;;;8.50;6.70;;;;;;;;;;4997192;28;20113;-76
2022/09/07 09:19:23;;;;;;;8.10;6.25;;;;;;;;;;4997030;28;20069;-75
2022/09/07 09:22:01;;;;;;;9.57;6.63;;;;;;;;;;4997637;28;20057;-77
2022/09/07 09:24:35;;;;;;;13.93;6.05;;;;;;;;;;4995571;28;20034;-76
2022/09/07 09:27:00;;;;;;;10.23;6.60;;;;;;;;;;4995207;28;20032;-77
2022/09/07 09:29:25;;;;;;;8.80;5.40;;;;;;;;;;4995310;28;20094;-77
2022/09/07 09:31:52;;;;;;;6.53;5.70;;;;;;;;;;4996352;28;20248;-77
2022/09/07 09:34:19;;;;;;;9.25;6.05;;;;;;;;;;4994975;28;20347;-76
2022/09/07 09:36:50;;;;;;;7.53;6.25;;;;;;;;;;4996050;28;20038;-77
2022/09/07 09:39:36;;;;;;;8.40;5.97;;;;;;;;;;4996030;28;20542;-77
2022/09/07 09:42:10;;;;;;;9.20;6.10;;;;;;;;;;4996033;28;20042;-78
2022/09/07 09:44:38;;;;;;;9.10;6.28;;;;;;;;;;4996013;28;20041;-77
2022/09/07 09:47:05;;;;;;;9.40;5.97;;;;;;;;;;4995578;28;20096;-77
2022/09/07 09:49:35;;;;;;;6.80;6.10;;;;;;;;;;4995871;28;20068;-76
2022/09/07 09:52:04;;;;;;;8.20;6.13;;;;;;;;;;4995591;28;20395;-76
2022/09/07 09:54:41;;;;;;;11.15;6.32;;;;;;;;;;4995758;28;20049;-76
2022/09/07 09:57:17;;;;;;;10.80;6.47;;;;;;;;;;4995839;28;20026;-77
2022/09/07 09:59:42;;;;;;;8.57;5.63;;;;;;;;;;4995367;28;20125;-77
2022/09/07 10:02:27;;;;;;;9.45;6.13;;;;;;;;;;4996097;28;20105;-76
2022/09/07 10:04:53;;;;;;;8.38;6.20;;;;;;;;;;4994054;28;20116;-77
2022/09/07 10:07:22;;;;;;;7.17;6.03;;;;;;;;;;4995486;28;20054;-77
2022/09/07 10:09:51;;;;;;;8.13;5.75;;;;;;;;;;4995835;28;20291;-77
2022/09/07 10:12:34;;;;;;;10.18;5.50;;;;;;;;;;4994831;28;20033;-78
2022/09/07 10:15:06;;;;;;;13.35;6.32;;;;;;;;;;4995767;28;20109;-78
2022/09/07 10:17:39;;;;;;;10.15;5.63;;;;;;;;;;4995557;28;20404;-77
2022/09/07 10:20:14;;;;;;;7.75;5.40;;;;;;;;;;4995898;28;20038;-77
2022/09/07 10:22:42;;;;;;;7.47;5.00;;;;;;;;;;4994358;28;20476;-77
2022/09/07 10:25:26;;;;;;;12.48;5.05;;;;;;;;;;4995301;28;20030;-76
2022/09/07 10:28:11;;;;;;;6.88;5.50;;;;;;;;;;4994254;28;20030;-77
2022/09/07 10:31:00;;;;;;;8.90;5.35;;;;;;;;;;4995009;28;20022;-76
2022/09/07 10:33:44;;;;;;;6.20;5.20;;;;;;;;;;4995005;28;20048;-77
2022/09/07 10:36:18;;;;;;;7.75;5.78;;;;;;;;;;4993875;28;20030;-77
2022/09/07 10:38:58;;;;;;;9.15;5.53;;;;;;;;;;4995073;28;20038;-77
2022/09/07 10:41:42;;;;;;;6.30;5.63;;;;;;;;;;4994940;28;20034;-77
2022/09/07 10:44:23;;;;;;;7.03;5.47;;;;;;;;;;4994986;28;20038;-76
2022/09/07 10:46:59;;;;;;;8.40;5.25;;;;;;;;;;4993707;28;20069;-77
2022/09/07 10:49:41;;;;;;;8.25;5.70;;;;;;;;;;4994892;28;20053;-77
2022/09/07 10:52:15;;;;;;;8.13;5.65;;;;;;;;;;4994808;28;20030;-77
2022/09/07 10:54:54;;;;;;;8.82;5.90;;;;;;;;;;4994620;28;20506;-77
2022/09/07 10:57:43;;;;;;;7.38;5.40;;;;;;;;;;4994727;28;20104;-77
2022/09/07 11:00:15;;;;;;;9.65;5.75;;;;;;;;;;4993227;28;20022;-76
2022/09/07 11:03:14;;;;;;;7.78;5.75;;;;;;;;;;4994226;28;20041;-76
2022/09/07 11:06:06;;;;;;;6.40;5.38;;;;;;;;;;4994377;28;20061;-77
2022/09/07 11:09:05;;;;;;;9.27;5.68;;;;;;;;;;4994591;28;20422;-76
2022/09/07 11:11:40;;;;;;;9.25;5.60;;;;;;;;;;4994322;28;20119;-76
2022/09/07 11:14:17;;;;;;;7.40;5.55;;;;;;;;;;4993961;28;20030;-79
2022/09/07 11:16:51;;;;;;;10.98;5.78;;;;;;;;;;4992577;28;20026;-77
2022/09/07 11:20:00;;;;;;;7.43;5.97;;;;;;;;;;4992943;28;20102;-77
2022/09/07 11:22:34;;;;;;;8.10;5.53;;;;;;;;;;4955425;28;20133;-76
2022/09/07 11:25:20;;;;;;;8.13;6.07;;;;;;;;;;4992324;28;20038;-77
2022/09/07 11:27:49;;;;;;;8.48;5.88;;;;;;;;;;4994877;28;20500;-78
2022/09/07 11:30:18;;;;;;;8.18;6.38;;;;;;;;;;4994163;28;20410;-76
2022/09/07 11:33:00;;;;;;;12.27;5.50;;;;;;;;;;4992725;28;20026;-77
2022/09/07 11:35:50;;;;;;;9.45;6.30;;;;;;;;;;4994166;28;20357;-76
2022/09/07 11:38:26;;;;;;;8.82;5.55;;;;;;;;;;4993630;28;20095;-76
2022/09/07 11:41:05;;;;;;;9.70;6.18;;;;;;;;;;4993971;28;20040;-77
2022/09/07 11:43:37;;;;;;;7.90;5.85;;;;;;;;;;4994126;28;20400;-76
2022/09/07 11:46:09;;;;;;;7.75;5.65;;;;;;;;;;4992389;28;20030;-77
2022/09/07 11:48:56;;;;;;;7.10;5.35;;;;;;;;;;4993570;28;20120;-77
2022/09/07 11:51:42;;;;;;;9.88;5.80;;;;;;;;;;4993722;28;20029;-77
2022/09/07 11:54:42;;;;;;;9.20;5.68;;;;;;;;;;4993622;28;20033;-76
2022/09/07 11:57:13;;;;;;;8.75;6.03;;;;;;;;;;4993420;28;20137;-76
2022/09/07 11:59:43;;;;;;;6.30;5.38;;;;;;;;;;4993610;28;20033;-77
2022/09/07 12:02:38;;;;;;;10.68;5.63;;;;;;;;;;4993572;28;20026;-76
2022/09/07 12:08:02;;;;;;;8.95;5.53;;;;;;;;;;5039302;22;20055;-77
2022/09/07 12:10:34;;;;;;;7.78;5.90;;;;;;;;;;4974323;28;20031;-77
2022/09/07 12:13:31;;;;;;;27.88;5.47;;;;;;;;;;4974083;28;20069;-76
2022/09/07 12:16:32;;;;;;;7.68;5.38;;;;;;;;;;4972694;28;20019;-76
2022/09/07 12:19:06;;;;;;;11.50;5.18;;;;;;;;;;4974555;28;20031;-77
2022/09/07 12:21:47;;;;;;;6.28;4.57;;;;;;;;;;4974190;28;20023;-78
2022/09/07 12:24:32;;;;;;;11.75;5.40;;;;;;;;;;4974528;28;20031;-77
2022/09/07 12:26:58;;;;;;;8.10;4.75;;;;;;;;;;4977626;28;20066;-77
2022/09/07 12:29:26;;;;;;;9.68;5.82;;;;;;;;;;4978249;28;20492;-77
2022/09/07 12:31:57;;;;;;;7.15;5.57;;;;;;;;;;4977986;28;20034;-77
2022/09/07 12:34:28;;;;;;;8.25;5.50;;;;;;;;;;4978334;28;20411;-77
2022/09/07 12:36:54;;;;;;;7.85;5.40;;;;;;;;;;4977916;28;20031;-75
2022/09/07 12:39:27;;;;;;;8.02;5.68;;;;;;;;;;4978003;28;20049;-77
2022/09/07 12:42:04;;;;;;;7.95;5.88;;;;;;;;;;4978785;28;20030;-77
2022/09/07 12:44:30;;;;;;;10.05;5.72;;;;;;;;;;4977841;28;20074;-77
2022/09/07 12:46:57;;;;;;;7.25;5.55;;;;;;;;;;4978038;28;20433;-76
2022/09/07 12:49:32;;;;;;;8.13;5.72;;;;;;;;;;4978190;28;20026;-78
2022/09/07 12:52:26;;;;;;;9.13;5.75;;;;;;;;;;4977449;28;20109;-77
2022/09/07 12:55:04;;;;;;;7.00;5.60;;;;;;;;;;4977957;28;20027;-77
2022/09/07 12:57:45;;;;;;;8.15;5.15;;;;;;;;;;4977650;28;20089;-76
2022/09/07 13:00:46;;;;;;;8.80;5.70;;;;;;;;;;4977279;28;20047;-77
2022/09/07 13:03:36;;;;;;;7.60;5.65;;;;;;;;;;4977285;28;20031;-76
2022/09/07 13:06:10;;;;;;;9.98;5.95;;;;;;;;;;4975707;28;20027;-77
2022/09/07 13:08:54;;;;;;;14.48;6.22;;;;;;;;;;4977296;28;20102;-76
2022/09/07 13:11:19;;;;;;;12.93;6.32;;;;;;;;;;4977105;28;20106;-76
2022/09/07 13:14:02;;;;;;;11.70;7.07;;;;;;;;;;4977239;28;20110;-77
2022/09/07 13:16:36;;;;;;;9.70;7.32;;;;;;;;;;4976772;28;20062;-77
2022/09/07 13:19:03;;;;;;;13.57;7.38;;;;;;;;;;4975497;28;20027;-76
2022/09/07 13:21:32;;;;;;;16.98;7.85;;;;;;;;;;4976718;28;20026;-77
2022/09/07 13:24:15;;;;;;;10.93;7.65;;;;;;;;;;4975362;28;20113;-77
2022/09/07 13:26:57;;;;;;;18.48;8.02;;;;;;;;;;4976809;28;20073;-77
2022/09/07 13:29:45;;;;;;;11.75;7.93;;;;;;;;;;4977040;28;20026;-77
2022/09/07 13:32:24;;;;;;;15.95;8.55;;;;;;;;;;4977697;28;20027;-76
2022/09/07 13:34:56;;;;;;;12.65;9.70;;;;;;;;;;4976010;28;20047;-77
2022/09/07 13:37:25;;;;;;;13.10;9.00;;;;;;;;;;4976881;28;20035;-78
2022/09/07 13:39:54;;;;;;;15.57;9.27;;;;;;;;;;4976796;28;20034;-76
2022/09/07 13:42:31;;;;;;;14.52;8.80;;;;;;;;;;4975169;28;20030;-77
2022/09/07 13:44:59;;;;;;;17.88;8.93;;;;;;;;;;4976923;28;20023;-77
2022/09/07 13:47:48;;;;;;;12.70;9.30;;;;;;;;;;4976474;28;20024;-77
2022/09/07 13:50:20;;;;;;;17.05;8.68;;;;;;;;;;4966537;28;20432;-77
2022/09/07 13:53:19;;;;;;;13.10;8.40;;;;;;;;;;4976882;28;20038;-77
2022/09/07 13:55:53;;;;;;;9.55;6.88;;;;;;;;;;4976701;28;20105;-75
2022/09/07 13:58:27;;;;;;;14.10;8.10;;;;;;;;;;4976387;28;20113;-78
2022/09/07 14:00:56;;;;;;;20.55;8.82;;;;;;;;;;4976683;28;20019;-76
2022/09/07 14:03:24;;;;;;;13.15;7.68;;;;;;;;;;4975601;28;20093;-78
2022/09/07 14:06:13;;;;;;;10.60;7.43;;;;;;;;;;4975895;28;20438;-76
2022/09/07 14:08:40;;;;;;;9.73;7.00;;;;;;;;;;4976144;28;20034;-77
2022/09/07 14:11:20;;;;;;;11.13;7.43;;;;;;;;;;4976603;28;20077;-77
2022/09/07 14:14:05;;;;;;;9.07;7.32;;;;;;;;;;4975064;28;20030;-77
2022/09/07 14:16:30;;;;;;;11.15;8.00;;;;;;;;;;4975325;28;20077;-76
2022/09/07 14:18:57;;;;;;;8.55;6.18;;;;;;;;;;4975941;28;20054;-76
2022/09/07 14:21:22;;;;;;;12.93;7.65;;;;;;;;;;4974833;28;20022;-77
2022/09/07 14:23:49;;;;;;;10.37;7.40;;;;;;;;;;4976245;28;20054;-76
2022/09/07 14:26:22;;;;;;;11.73;7.13;;;;;;;;;;4975796;28;20662;-76
2022/09/07 14:28:53;;;;;;;14.87;7.30;;;;;;;;;;4976417;28;20078;-77
2022/09/07 14:31:20;;;;;;;13.80;7.10;;;;;;;;;;4976861;28;20023;-77
2022/09/07 14:33:52;;;;;;;9.98;7.03;;;;;;;;;;4975965;28;20054;-77
2022/09/07 14:36:20;;;;;;;10.33;7.50;;;;;;;;;;4974381;28;20023;-77
2022/09/07 14:38:47;;;;;;;8.00;6.88;;;;;;;;;;4975838;28;20484;-77
2022/09/07 14:41:14;;;;;;;9.90;5.93;;;;;;;;;;4975199;28;20027;-77
2022/09/07 14:44:18;;;;;;;13.55;6.88;;;;;;;;;;4977013;28;20039;-77
2022/09/07 14:46:45;;;;;;;9.35;6.65;;;;;;;;;;4976530;28;20035;-78
2022/09/07 14:49:19;;;;;;;11.95;6.97;;;;;;;;;;4975988;28;20081;-78
2022/09/07 14:51:45;;;;;;;15.00;7.03;;;;;;;;;;4976316;28;20034;-78
2022/09/07 14:54:23;;;;;;;11.30;6.75;;;;;;;;;;4975809;28;20031;-78
2022/09/07 14:57:24;;;;;;;9.85;6.85;;;;;;;;;;4975632;28;20503;-77
2022/09/07 14:59:52;;;;;;;12.57;6.85;;;;;;;;;;4975430;28;20030;-77
2022/09/07 15:02:17;;;;;;;10.60;6.95;;;;;;;;;;4974999;28;20114;-77
2022/09/07 15:04:43;;;;;;;18.73;7.27;;;;;;;;;;4973646;28;20498;-78
2022/09/07 15:07:50;;;;;;;15.23;7.38;;;;;;;;;;4975099;28;20038;-76
2022/09/07 15:10:27;;;;;;;10.48;7.15;;;;;;;;;;4953702;29;20505;-77
2022/09/07 15:12:55;;;;;;;11.00;7.07;;;;;;;;;;4953671;29;20038;-77
2022/09/07 15:15:23;;;;;;;15.80;7.15;;;;;;;;;;4965695;28;20058;-76
2022/09/07 15:17:50;;;;;;;14.05;7.85;;;;;;;;;;4973417;28;20031;-76
2022/09/07 15:20:33;;;;;;;10.07;7.00;;;;;;;;;;4973491;28;20049;-76
2022/09/07 15:23:00;;;;;;;12.00;6.85;;;;;;;;;;4975056;28;20122;-76
2022/09/07 15:25:25;;;;;;;10.05;6.78;;;;;;;;;;4973262;28;20031;-76
2022/09/07 15:27:52;;;;;;;11.68;6.93;;;;;;;;;;4974800;28;20031;-77
2022/09/07 15:30:17;;;;;;;11.15;5.70;;;;;;;;;;4974789;28;20023;-77
2022/09/07 15:32:42;;;;;;;10.97;5.13;;;;;;;;;;4975939;28;20512;-77
2022/09/07 15:35:09;;;;;;;12.50;5.37;;;;;;;;;;4975840;28;20750;-77
2022/09/07 15:37:34;;;;;;;9.57;5.10;;;;;;;;;;4974984;28;20261;-76
2022/09/07 15:39:59;;;;;;;7.57;5.23;;;;;;;;;;4974765;28;20027;-78
2022/09/07 15:42:25;;;;;;;10.13;4.68;;;;;;;;;;4974994;28;20272;-77
2022/09/07 15:44:51;;;;;;;10.13;4.72;;;;;;;;;;4974776;28;20018;-77
2022/09/07 15:47:20;;;;;;;10.07;4.47;;;;;;;;;;4974647;28;20041;-77
2022/09/07 15:49:46;;;;;;;8.88;4.65;;;;;;;;;;4975236;28;20437;-80
2022/09/07 15:52:12;;;;;;;6.80;4.40;;;;;;;;;;4974770;28;20027;-76
2022/09/07 15:54:37;;;;;;;9.25;4.93;;;;;;;;;;4975253;28;20046;-76
2022/09/07 15:57:02;;;;;;;10.27;4.63;;;;;;;;;;4975469;28;20042;-76
2022/09/07 15:59:27;;;;;;;11.45;5.80;;;;;;;;;;4974414;28;20261;-77
2022/09/07 16:01:53;;;;;;;8.07;5.30;;;;;;;;;;4957387;28;20404;-76
2022/09/07 16:04:18;;;;;;;9.50;5.35;;;;;;;;;;4974398;28;20315;-75
2022/09/07 16:06:43;;;;;;;15.95;5.90;;;;;;;;;;4974725;28;20047;-76
2022/09/07 16:09:09;;;;;;;7.50;5.30;;;;;;;;;;4974433;28;20110;-77
2022/09/07 16:11:34;;;;;;;8.95;5.30;;;;;;;;;;4974117;28;20292;-77
2022/09/07 16:14:00;;;;;;;8.52;5.10;;;;;;;;;;4974194;28;20034;-77
2022/09/07 16:16:27;;;;;;;8.98;5.13;;;;;;;;;;4973130;28;20027;-78
2022/09/07 16:18:52;;;;;;;10.73;5.90;;;;;;;;;;4974830;28;20022;-77
2022/09/07 16:21:19;;;;;;;9.40;6.85;;;;;;;;;;4974033;28;20078;-77
2022/09/07 16:23:48;;;;;;;9.20;6.05;;;;;;;;;;4973162;28;20424;-77
2022/09/07 16:26:15;;;;;;;9.02;5.82;;;;;;;;;;4974187;28;20432;-77
2022/09/07 16:28:43;;;;;;;10.20;6.70;;;;;;;;;;4975466;28;20412;-77
2022/09/07 16:31:14;;;;;;;11.23;6.15;;;;;;;;;;4972856;28;20025;-77
2022/09/07 16:33:39;;;;;;;12.18;6.20;;;;;;;;;;4972708;28;20062;-77
2022/09/07 16:36:08;;;;;;;11.32;5.72;;;;;;;;;;4974316;28;20030;-77
2022/09/07 16:38:34;;;;;;;8.27;6.43;;;;;;;;;;4974320;28;20046;-77
2022/09/07 16:41:00;;;;;;;9.40;6.60;;;;;;;;;;4973134;28;20480;-77
2022/09/07 16:43:26;;;;;;;10.02;6.75;;;;;;;;;;4973977;28;20035;-77
2022/09/07 16:46:05;;;;;;;12.30;6.80;;;;;;;;;;4973909;28;20035;-78
2022/09/07 16:48:32;;;;;;;13.15;8.15;;;;;;;;;;4974572;28;20112;-76
2022/09/07 16:50:59;;;;;;;11.18;6.72;;;;;;;;;;4974616;28;20035;-77
2022/09/07 16:53:24;;;;;;;13.48;7.72;;;;;;;;;;4974085;28;20026;-76
2022/09/07 16:55:49;;;;;;;9.07;6.75;;;;;;;;;;4974009;28;20061;-77
2022/09/07 16:58:15;;;;;;;10.43;8.47;;;;;;;;;;4974067;28;20034;-77
2022/09/07 17:00:41;;;;;;;12.40;8.00;;;;;;;;;;4973970;28;20268;-77
2022/09/07 17:03:08;;;;;;;11.95;7.40;;;;;;;;;;4974027;28;20273;-77
2022/09/07 17:05:37;;;;;;;11.35;8.20;;;;;;;;;;4973667;28;20027;-77
2022/09/07 17:08:03;;;;;;;14.05;7.53;;;;;;;;;;4973360;28;20026;-77
2022/09/07 17:10:28;;;;;;;14.57;8.07;;;;;;;;;;4974553;28;20023;-77